createdAt,value
2019-03-09T00:00:14.733Z,983.56
2019-03-09T00:01:14.735Z,983.54
2019-03-09T00:02:14.766Z,983.51
2019-03-09T00:03:14.724Z,983.49
2019-03-09T00:04:14.691Z,983.43
2019-03-09T00:05:14.726Z,983.39
2019-03-09T00:06:14.653Z,983.32
2019-03-09T00:07:14.716Z,983.32
2019-03-09T00:08:14.719Z,983.26
2019-03-09T00:09:14.683Z,983.19
2019-03-09T00:10:14.669Z,983.14
2019-03-09T00:11:14.671Z,983.10
2019-03-09T00:12:14.664Z,983.13
2019-03-09T00:13:14.593Z,983.07
2019-03-09T00:14:14.932Z,983.08
2019-03-09T00:15:14.580Z,983.13
2019-03-09T00:16:14.597Z,983.11
2019-03-09T00:17:14.541Z,983.15
2019-03-09T00:18:14.558Z,983.17
2019-03-09T00:19:14.596Z,983.15
2019-03-09T00:20:14.606Z,983.05
2019-03-09T00:21:14.524Z,983.10
2019-03-09T00:22:14.504Z,983.07
2019-03-09T00:23:16.330Z,983.03
2019-03-09T00:24:14.487Z,983.09
2019-03-09T00:25:14.507Z,983.06
2019-03-09T00:26:14.450Z,983.10
2019-03-09T00:27:14.537Z,983.06
2019-03-09T00:28:14.448Z,982.93
2019-03-09T00:29:15.299Z,982.91
2019-03-09T00:30:14.396Z,982.98
2019-03-09T00:31:14.412Z,982.98
2019-03-09T00:32:14.386Z,982.90
2019-03-09T00:33:14.395Z,983.01
2019-03-09T00:34:14.382Z,982.91
2019-03-09T00:35:14.356Z,982.90
2019-03-09T00:36:14.337Z,982.96
2019-03-09T00:37:14.401Z,982.85
2019-03-09T00:38:14.418Z,982.89
2019-03-09T00:39:14.347Z,982.91
2019-03-09T00:40:14.299Z,982.81
2019-03-09T00:41:14.288Z,982.78
2019-03-09T00:42:14.390Z,982.84
2019-03-09T00:43:14.261Z,982.77
2019-03-09T00:44:14.285Z,982.83
2019-03-09T00:45:14.266Z,982.79
2019-03-09T00:46:14.309Z,982.79
2019-03-09T00:47:14.312Z,982.81
2019-03-09T00:48:14.284Z,982.76
2019-03-09T00:49:14.232Z,982.74
2019-03-09T00:50:14.188Z,982.87
2019-03-09T00:51:14.231Z,982.84
2019-03-09T00:52:14.176Z,982.88
2019-03-09T00:53:14.151Z,982.94
2019-03-09T00:54:15.172Z,982.89
2019-03-09T00:55:14.134Z,982.95
2019-03-09T00:56:14.161Z,982.88
2019-03-09T00:57:14.143Z,982.92
2019-03-09T00:58:14.122Z,982.92
2019-03-09T00:59:14.087Z,982.89
2019-03-09T01:00:14.077Z,982.85
2019-03-09T01:01:14.077Z,982.87
2019-03-09T01:02:14.075Z,982.85
2019-03-09T01:03:14.059Z,982.88
2019-03-09T01:04:14.082Z,982.67
2019-03-09T01:05:14.023Z,982.77
2019-03-09T01:06:14.017Z,982.77
2019-03-09T01:07:14.019Z,982.75
2019-03-09T01:08:14.019Z,982.80
2019-03-09T01:09:13.989Z,982.75
2019-03-09T01:10:13.969Z,982.71
2019-03-09T01:11:13.964Z,982.73
2019-03-09T01:12:13.975Z,982.72
2019-03-09T01:13:14.018Z,982.70
2019-03-09T01:14:13.933Z,982.45
2019-03-09T01:15:13.963Z,982.57
2019-03-09T01:16:13.947Z,982.53
2019-03-09T01:17:13.928Z,982.51
2019-03-09T01:18:13.898Z,982.52
2019-03-09T01:19:13.958Z,982.46
2019-03-09T01:20:13.923Z,982.43
2019-03-09T01:21:13.889Z,982.42
2019-03-09T01:22:13.886Z,982.34
2019-03-09T01:23:13.840Z,982.28
2019-03-09T01:24:13.833Z,982.32
2019-03-09T01:25:13.827Z,982.27
2019-03-09T01:26:13.814Z,982.25
2019-03-09T01:27:13.788Z,982.24
2019-03-09T01:28:13.846Z,982.23
2019-03-09T01:29:13.846Z,982.22
2019-03-09T01:30:13.832Z,982.22
2019-03-09T01:31:13.773Z,982.25
2019-03-09T01:32:13.746Z,982.29
2019-03-09T01:33:13.801Z,982.30
2019-03-09T01:34:13.805Z,982.29
2019-03-09T01:35:13.751Z,982.24
2019-03-09T01:36:13.711Z,982.27
2019-03-09T01:37:13.724Z,982.22
2019-03-09T01:38:13.817Z,982.15
2019-03-09T01:39:13.712Z,982.19
2019-03-09T01:40:13.655Z,982.22
2019-03-09T01:41:13.656Z,982.17
2019-03-09T01:42:13.680Z,982.18
2019-03-09T01:43:13.647Z,982.12
2019-03-09T01:44:13.642Z,982.16
2019-03-09T01:45:13.650Z,982.06
2019-03-09T01:46:13.660Z,982.01
2019-03-09T01:47:13.648Z,982.00
2019-03-09T01:48:13.577Z,981.99
2019-03-09T01:49:13.601Z,981.93
2019-03-09T01:50:13.568Z,981.90
2019-03-09T01:51:13.585Z,981.90
2019-03-09T01:52:14.311Z,981.87
2019-03-09T01:53:13.569Z,981.89
2019-03-09T01:54:13.525Z,981.91
2019-03-09T01:55:13.626Z,981.87
2019-03-09T01:56:13.557Z,981.84
2019-03-09T01:57:13.546Z,981.81
2019-03-09T01:58:13.565Z,981.81
2019-03-09T01:59:13.460Z,981.84
2019-03-09T02:00:13.489Z,981.70
2019-03-09T02:01:13.542Z,981.80
2019-03-09T02:02:13.449Z,981.73
2019-03-09T02:03:13.637Z,981.70
2019-03-09T02:04:13.444Z,981.63
2019-03-09T02:05:13.464Z,981.70
2019-03-09T02:06:13.405Z,981.73
2019-03-09T02:07:13.377Z,981.68
2019-03-09T02:08:13.399Z,981.78
2019-03-09T02:09:13.380Z,981.71
2019-03-09T02:10:13.365Z,981.62
2019-03-09T02:11:13.397Z,981.68
2019-03-09T02:12:13.380Z,981.64
2019-03-09T02:13:13.413Z,981.61
2019-03-09T02:14:13.295Z,981.52
2019-03-09T02:15:13.295Z,981.57
2019-03-09T02:16:13.346Z,981.38
2019-03-09T02:17:13.380Z,981.34
2019-03-09T02:18:13.255Z,981.48
2019-03-09T02:19:13.372Z,981.58
2019-03-09T02:20:13.245Z,981.49
2019-03-09T02:21:13.283Z,981.49
2019-03-09T02:22:13.246Z,981.56
2019-03-09T02:23:13.248Z,981.52
2019-03-09T02:24:13.270Z,981.52
2019-03-09T02:25:13.210Z,981.45
2019-03-09T02:26:13.250Z,981.44
2019-03-09T02:27:13.208Z,981.40
2019-03-09T02:28:13.257Z,981.37
2019-03-09T02:29:13.132Z,981.40
2019-03-09T02:30:13.159Z,981.45
2019-03-09T02:31:13.167Z,981.36
2019-03-09T02:32:13.168Z,981.34
2019-03-09T02:33:13.115Z,981.25
2019-03-09T02:34:13.092Z,981.23
2019-03-09T02:35:13.098Z,981.39
2019-03-09T02:36:13.057Z,981.30
2019-03-09T02:37:13.085Z,981.22
2019-03-09T02:38:13.052Z,981.22
2019-03-09T02:39:13.027Z,981.43
2019-03-09T02:40:13.044Z,981.38
2019-03-09T02:41:13.033Z,981.20
2019-03-09T02:42:13.009Z,981.18
2019-03-09T02:43:12.999Z,981.18
2019-03-09T02:44:12.978Z,981.15
2019-03-09T02:45:12.976Z,981.19
2019-03-09T02:46:12.963Z,981.15
2019-03-09T02:47:12.988Z,981.15
2019-03-09T02:48:12.956Z,981.11
2019-03-09T02:49:12.924Z,981.23
2019-03-09T02:50:13.021Z,981.21
2019-03-09T02:51:12.930Z,981.19
2019-03-09T02:52:12.885Z,981.24
2019-03-09T02:53:12.952Z,981.22
2019-03-09T02:54:12.933Z,981.27
2019-03-09T02:55:13.028Z,981.25
2019-03-09T02:56:12.910Z,981.14
2019-03-09T02:57:12.872Z,981.11
2019-03-09T02:58:12.903Z,981.14
2019-03-09T02:59:12.852Z,981.09
2019-03-09T03:00:12.846Z,981.22
2019-03-09T03:01:12.905Z,981.18
2019-03-09T03:02:12.884Z,981.19
2019-03-09T03:03:12.775Z,981.12
2019-03-09T03:04:12.797Z,981.19
2019-03-09T03:05:12.760Z,981.14
2019-03-09T03:06:12.753Z,981.19
2019-03-09T03:07:12.752Z,981.16
2019-03-09T03:08:12.717Z,981.25
2019-03-09T03:09:12.725Z,981.19
2019-03-09T03:10:12.702Z,981.16
2019-03-09T03:11:12.699Z,981.31
2019-03-09T03:12:12.673Z,981.18
2019-03-09T03:13:12.664Z,981.23
2019-03-09T03:14:12.669Z,981.15
2019-03-09T03:15:12.639Z,981.28
2019-03-09T03:16:12.635Z,981.21
2019-03-09T03:17:12.631Z,981.24
2019-03-09T03:18:12.635Z,981.23
2019-03-09T03:19:12.623Z,981.21
2019-03-09T03:20:12.604Z,981.23
2019-03-09T03:21:12.578Z,981.23
2019-03-09T03:22:12.572Z,981.23
2019-03-09T03:23:12.558Z,981.10
2019-03-09T03:24:12.800Z,981.22
2019-03-09T03:25:12.542Z,981.17
2019-03-09T03:26:12.550Z,981.13
2019-03-09T03:27:12.523Z,981.22
2019-03-09T03:28:12.524Z,981.15
2019-03-09T03:29:12.515Z,981.27
2019-03-09T03:30:12.498Z,981.18
2019-03-09T03:31:12.491Z,981.32
2019-03-09T03:32:12.463Z,981.25
2019-03-09T03:33:12.454Z,981.17
2019-03-09T03:34:12.453Z,981.37
2019-03-09T03:35:12.469Z,981.39
2019-03-09T03:36:13.335Z,981.27
2019-03-09T03:37:12.420Z,981.25
2019-03-09T03:38:12.490Z,981.10
2019-03-09T03:39:12.394Z,981.25
2019-03-09T03:40:12.374Z,981.30
2019-03-09T03:41:12.441Z,981.38
2019-03-09T03:42:12.405Z,981.39
2019-03-09T03:43:12.406Z,981.38
2019-03-09T03:44:12.433Z,981.38
2019-03-09T03:45:12.354Z,981.38
2019-03-09T03:46:12.322Z,981.37
2019-03-09T03:47:12.336Z,981.37
2019-03-09T03:48:12.343Z,981.35
2019-03-09T03:49:12.298Z,981.44
2019-03-09T03:50:12.273Z,981.34
2019-03-09T03:51:12.270Z,981.47
2019-03-09T03:52:12.275Z,981.45
2019-03-09T03:53:12.265Z,981.40
2019-03-09T03:54:12.243Z,981.45
2019-03-09T03:55:12.258Z,981.43
2019-03-09T03:56:12.202Z,981.44
2019-03-09T03:57:12.202Z,981.31
2019-03-09T03:58:12.290Z,981.34
2019-03-09T03:59:12.190Z,981.53
2019-03-09T04:00:12.167Z,981.37
2019-03-09T04:01:12.185Z,981.42
2019-03-09T04:02:12.139Z,981.44
2019-03-09T04:03:12.146Z,981.42
2019-03-09T04:04:12.139Z,981.37
2019-03-09T04:05:12.128Z,981.42
2019-03-09T04:06:12.272Z,981.27
2019-03-09T04:07:12.121Z,981.43
2019-03-09T04:08:12.074Z,981.44
2019-03-09T04:09:12.068Z,981.46
2019-03-09T04:10:12.082Z,981.51
2019-03-09T04:11:12.042Z,981.45
2019-03-09T04:12:12.033Z,981.34
2019-03-09T04:13:12.047Z,981.36
2019-03-09T04:14:12.015Z,981.31
2019-03-09T04:15:12.063Z,981.23
2019-03-09T04:16:12.037Z,981.40
2019-03-09T04:17:11.985Z,981.50
2019-03-09T04:18:11.982Z,981.43
2019-03-09T04:19:11.979Z,981.52
2019-03-09T04:20:11.958Z,981.57
2019-03-09T04:21:11.974Z,981.60
2019-03-09T04:22:11.937Z,981.69
2019-03-09T04:23:11.926Z,981.59
2019-03-09T04:24:11.904Z,981.58
2019-03-09T04:25:11.910Z,981.50
2019-03-09T04:26:11.925Z,981.61
2019-03-09T04:27:12.101Z,981.61
2019-03-09T04:28:11.892Z,981.43
2019-03-09T04:29:11.856Z,981.46
2019-03-09T04:30:11.867Z,981.47
2019-03-09T04:31:11.838Z,981.55
2019-03-09T04:32:11.819Z,981.59
2019-03-09T04:33:11.823Z,981.70
2019-03-09T04:34:11.834Z,981.67
2019-03-09T04:35:11.802Z,981.81
2019-03-09T04:36:11.803Z,981.85
2019-03-09T04:37:11.819Z,981.89
2019-03-09T04:38:11.758Z,981.88
2019-03-09T04:39:11.757Z,981.76
2019-03-09T04:40:11.753Z,981.98
2019-03-09T04:41:11.754Z,981.94
2019-03-09T04:42:12.251Z,981.96
2019-03-09T04:43:11.710Z,981.97
2019-03-09T04:44:11.793Z,981.97
2019-03-09T04:45:11.755Z,981.90
2019-03-09T04:46:11.710Z,981.84
2019-03-09T04:47:11.752Z,981.84
2019-03-09T04:48:11.752Z,981.70
2019-03-09T04:49:11.661Z,982.02
2019-03-09T04:50:11.635Z,981.92
2019-03-09T04:51:11.656Z,981.89
2019-03-09T04:52:11.611Z,982.05
2019-03-09T04:53:11.600Z,982.08
2019-03-09T04:54:11.643Z,982.09
2019-03-09T04:55:11.598Z,982.07
2019-03-09T04:56:11.569Z,982.07
2019-03-09T04:57:11.562Z,982.05
2019-03-09T04:58:11.550Z,981.95
2019-03-09T04:59:11.580Z,982.10
2019-03-09T05:00:11.597Z,982.12
2019-03-09T05:01:11.525Z,982.09
2019-03-09T05:02:11.505Z,981.93
2019-03-09T05:03:11.498Z,981.98
2019-03-09T05:04:11.488Z,982.14
2019-03-09T05:05:11.475Z,982.16
2019-03-09T05:06:11.524Z,982.18
2019-03-09T05:07:11.494Z,982.20
2019-03-09T05:08:11.469Z,982.26
2019-03-09T05:09:11.657Z,982.29
2019-03-09T05:10:11.432Z,982.27
2019-03-09T05:11:11.431Z,982.38
2019-03-09T05:12:11.435Z,982.37
2019-03-09T05:13:11.400Z,982.41
2019-03-09T05:14:11.420Z,982.52
2019-03-09T05:15:11.446Z,982.52
2019-03-09T05:16:11.371Z,982.50
2019-03-09T05:17:11.385Z,982.54
2019-03-09T05:18:11.365Z,982.49
2019-03-09T05:19:11.327Z,982.45
2019-03-09T05:20:11.328Z,982.49
2019-03-09T05:21:11.349Z,982.40
2019-03-09T05:22:11.308Z,982.45
2019-03-09T05:23:11.296Z,982.44
2019-03-09T05:24:11.312Z,982.47
2019-03-09T05:25:11.300Z,982.40
2019-03-09T05:26:11.289Z,982.47
2019-03-09T05:27:11.264Z,982.52
2019-03-09T05:28:11.237Z,982.51
2019-03-09T05:29:11.225Z,982.44
2019-03-09T05:30:11.542Z,982.53
2019-03-09T05:31:11.241Z,982.55
2019-03-09T05:32:11.285Z,982.58
2019-03-09T05:33:11.271Z,982.46
2019-03-09T05:34:11.189Z,982.56
2019-03-09T05:35:11.178Z,982.54
2019-03-09T05:36:11.190Z,982.56
2019-03-09T05:37:11.137Z,982.46
2019-03-09T05:38:11.139Z,982.69
2019-03-09T05:39:11.135Z,982.69
2019-03-09T05:40:11.133Z,982.78
2019-03-09T05:41:11.102Z,982.90
2019-03-09T05:42:11.119Z,982.83
2019-03-09T05:43:11.123Z,982.86
2019-03-09T05:44:11.120Z,982.97
2019-03-09T05:45:11.168Z,982.93
2019-03-09T05:46:11.144Z,982.99
2019-03-09T05:47:11.045Z,983.07
2019-03-09T05:48:11.034Z,982.97
2019-03-09T05:49:11.058Z,983.04
2019-03-09T05:50:11.050Z,983.01
2019-03-09T05:51:11.114Z,982.98
2019-03-09T05:52:10.981Z,982.88
2019-03-09T05:53:11.045Z,983.03
2019-03-09T05:54:11.007Z,983.03
2019-03-09T05:55:10.978Z,982.97
2019-03-09T05:56:11.000Z,983.03
2019-03-09T05:57:10.932Z,983.04
2019-03-09T05:58:10.966Z,983.02
2019-03-09T05:59:10.916Z,982.98
2019-03-09T06:00:10.949Z,983.00
2019-03-09T06:01:10.888Z,982.99
2019-03-09T06:02:10.917Z,982.93
2019-03-09T06:03:10.883Z,982.94
2019-03-09T06:04:10.890Z,982.98
2019-03-09T06:05:10.917Z,982.85
2019-03-09T06:06:10.955Z,982.87
2019-03-09T06:07:10.915Z,982.88
2019-03-09T06:08:10.819Z,982.83
2019-03-09T06:09:10.822Z,982.77
2019-03-09T06:10:10.808Z,982.87
2019-03-09T06:11:10.867Z,982.82
2019-03-09T06:12:10.809Z,982.81
2019-03-09T06:13:10.810Z,982.81
2019-03-09T06:14:10.781Z,982.80
2019-03-09T06:15:10.845Z,982.80
2019-03-09T06:16:10.762Z,982.81
2019-03-09T06:17:10.760Z,982.81
2019-03-09T06:18:10.725Z,982.91
2019-03-09T06:19:10.746Z,982.87
2019-03-09T06:20:10.757Z,982.86
2019-03-09T06:21:10.722Z,982.83
2019-03-09T06:22:10.683Z,982.88
2019-03-09T06:23:10.759Z,982.88
2019-03-09T06:24:10.647Z,982.84
2019-03-09T06:25:10.674Z,982.92
2019-03-09T06:26:10.642Z,982.88
2019-03-09T06:27:10.674Z,983.02
2019-03-09T06:28:10.608Z,983.01
2019-03-09T06:29:10.622Z,983.02
2019-03-09T06:30:10.620Z,983.07
2019-03-09T06:31:10.590Z,983.04
2019-03-09T06:32:10.645Z,983.10
2019-03-09T06:33:10.593Z,983.06
2019-03-09T06:34:10.611Z,983.09
2019-03-09T06:35:10.591Z,983.11
2019-03-09T06:36:10.559Z,983.13
2019-03-09T06:37:10.517Z,983.21
2019-03-09T06:38:10.548Z,983.17
2019-03-09T06:39:10.485Z,983.22
2019-03-09T06:40:10.487Z,983.33
2019-03-09T06:41:10.538Z,983.36
2019-03-09T06:42:10.469Z,983.41
2019-03-09T06:43:10.447Z,983.40
2019-03-09T06:44:10.440Z,983.54
2019-03-09T06:45:10.426Z,983.58
2019-03-09T06:46:10.461Z,983.67
2019-03-09T06:47:10.413Z,983.75
2019-03-09T06:48:10.387Z,983.72
2019-03-09T06:49:10.386Z,983.81
2019-03-09T06:50:10.372Z,983.72
2019-03-09T06:51:10.377Z,983.81
2019-03-09T06:52:10.344Z,983.82
2019-03-09T06:53:10.373Z,983.74
2019-03-09T06:54:10.337Z,983.68
2019-03-09T06:55:10.319Z,983.76
2019-03-09T06:56:10.319Z,983.72
2019-03-09T06:57:13.839Z,983.72
2019-03-09T06:58:10.279Z,983.81
2019-03-09T06:59:10.287Z,983.75
2019-03-09T07:00:10.290Z,983.80
2019-03-09T07:01:10.276Z,983.81
2019-03-09T07:02:10.236Z,983.79
2019-03-09T07:03:10.253Z,983.76
2019-03-09T07:04:10.221Z,983.79
2019-03-09T07:05:10.230Z,983.85
2019-03-09T07:06:10.195Z,983.96
2019-03-09T07:07:10.204Z,983.91
2019-03-09T07:08:10.185Z,984.10
2019-03-09T07:09:10.244Z,984.04
2019-03-09T07:10:10.156Z,984.12
2019-03-09T07:11:10.142Z,984.15
2019-03-09T07:12:10.132Z,984.14
2019-03-09T07:13:10.119Z,984.12
2019-03-09T07:14:10.745Z,983.99
2019-03-09T07:15:10.319Z,983.93
2019-03-09T07:16:10.440Z,983.97
2019-03-09T07:17:10.095Z,983.97
2019-03-09T07:18:10.071Z,984.00
2019-03-09T07:19:10.056Z,983.99
2019-03-09T07:20:19.676Z,984.11
2019-03-09T07:21:11.081Z,984.16
2019-03-09T07:22:10.029Z,984.19
2019-03-09T07:23:10.027Z,984.15
2019-03-09T07:24:10.005Z,984.20
2019-03-09T07:25:09.996Z,984.29
2019-03-09T07:26:10.007Z,984.30
2019-03-09T07:27:09.970Z,984.37
2019-03-09T07:28:09.961Z,984.28
2019-03-09T07:29:09.956Z,984.29
2019-03-09T07:30:10.006Z,984.30
2019-03-09T07:31:09.996Z,984.24
2019-03-09T07:32:09.922Z,984.25
2019-03-09T07:33:09.958Z,984.18
2019-03-09T07:34:09.915Z,984.14
2019-03-09T07:35:09.885Z,984.16
2019-03-09T07:36:09.873Z,984.16
2019-03-09T07:37:09.901Z,984.19
2019-03-09T07:38:09.856Z,984.14
2019-03-09T07:39:09.858Z,984.08
2019-03-09T07:40:09.831Z,984.11
2019-03-09T07:41:09.818Z,984.03
2019-03-09T07:42:09.850Z,984.17
2019-03-09T07:43:09.858Z,984.08
2019-03-09T07:44:09.791Z,984.18
2019-03-09T07:45:09.795Z,984.16
2019-03-09T07:46:09.830Z,984.11
2019-03-09T07:47:09.778Z,984.15
2019-03-09T07:48:09.743Z,984.21
2019-03-09T07:49:09.733Z,984.21
2019-03-09T07:50:09.725Z,984.29
2019-03-09T07:51:09.717Z,984.43
2019-03-09T07:52:09.753Z,984.43
2019-03-09T07:53:09.744Z,984.49
2019-03-09T07:54:09.698Z,984.49
2019-03-09T07:55:09.706Z,984.37
2019-03-09T07:56:09.663Z,984.25
2019-03-09T07:57:09.683Z,984.27
2019-03-09T07:58:09.837Z,984.22
2019-03-09T07:59:09.636Z,984.23
2019-03-09T08:00:09.660Z,984.10
2019-03-09T08:01:09.610Z,984.23
2019-03-09T08:02:09.599Z,984.21
2019-03-09T08:03:09.585Z,984.37
2019-03-09T08:04:09.606Z,984.31
2019-03-09T08:05:09.599Z,984.33
2019-03-09T08:06:09.555Z,984.32
2019-03-09T08:07:09.550Z,984.33
2019-03-09T08:08:09.529Z,984.42
2019-03-09T08:09:09.520Z,984.43
2019-03-09T08:10:09.563Z,984.39
2019-03-09T08:11:09.511Z,984.33
2019-03-09T08:12:09.495Z,984.30
2019-03-09T08:13:09.511Z,984.29
2019-03-09T08:14:09.472Z,984.39
2019-03-09T08:15:09.454Z,984.39
2019-03-09T08:16:09.469Z,984.35
2019-03-09T08:17:09.464Z,984.42
2019-03-09T08:18:09.427Z,984.44
2019-03-09T08:19:09.465Z,984.44
2019-03-09T08:20:09.427Z,984.52
2019-03-09T08:21:09.397Z,984.42
2019-03-09T08:22:09.415Z,984.59
2019-03-09T08:23:09.379Z,984.58
2019-03-09T08:24:09.360Z,984.62
2019-03-09T08:25:09.348Z,984.63
2019-03-09T08:26:09.382Z,984.61
2019-03-09T08:27:09.363Z,984.66
2019-03-09T08:28:09.321Z,984.58
2019-03-09T08:29:09.320Z,984.64
2019-03-09T08:30:09.296Z,984.66
2019-03-09T08:31:09.288Z,984.59
2019-03-09T08:32:09.306Z,984.57
2019-03-09T08:33:09.277Z,984.50
2019-03-09T08:34:09.280Z,984.53
2019-03-09T08:35:09.273Z,984.28
2019-03-09T08:36:09.247Z,984.47
2019-03-09T08:37:09.240Z,984.44
2019-03-09T08:38:09.213Z,984.48
2019-03-09T08:39:09.205Z,984.50
2019-03-09T08:40:09.402Z,984.49
2019-03-09T08:41:09.201Z,984.45
2019-03-09T08:42:09.182Z,984.41
2019-03-09T08:43:09.176Z,984.39
2019-03-09T08:44:09.146Z,984.31
2019-03-09T08:45:09.163Z,984.29
2019-03-09T08:46:09.133Z,984.32
2019-03-09T08:47:09.113Z,984.40
2019-03-09T08:48:09.137Z,984.28
2019-03-09T08:49:09.180Z,984.24
2019-03-09T08:50:09.082Z,984.23
2019-03-09T08:51:09.081Z,984.25
2019-03-09T08:52:09.060Z,984.15
2019-03-09T08:53:09.104Z,984.15
2019-03-09T08:54:09.054Z,984.11
2019-03-09T08:55:09.067Z,984.09
2019-03-09T08:56:09.028Z,984.13
2019-03-09T08:57:09.005Z,984.12
2019-03-09T08:58:09.041Z,984.17
2019-03-09T08:59:08.984Z,984.20
2019-03-09T09:00:08.978Z,984.29
2019-03-09T09:01:08.988Z,984.31
2019-03-09T09:02:08.996Z,984.35
2019-03-09T09:03:09.001Z,984.35
2019-03-09T09:04:08.947Z,984.38
2019-03-09T09:05:08.945Z,984.37
2019-03-09T09:06:08.910Z,984.19
2019-03-09T09:07:08.898Z,984.33
2019-03-09T09:08:08.887Z,984.28
2019-03-09T09:09:08.946Z,984.37
2019-03-09T09:10:08.898Z,984.36
2019-03-09T09:11:08.878Z,984.39
2019-03-09T09:12:08.847Z,984.38
2019-03-09T09:13:08.840Z,984.46
2019-03-09T09:14:08.842Z,984.48
2019-03-09T09:15:08.856Z,984.54
2019-03-09T09:16:08.837Z,984.56
2019-03-09T09:17:08.800Z,984.64
2019-03-09T09:18:08.804Z,984.60
2019-03-09T09:19:08.797Z,984.60
2019-03-09T09:20:08.783Z,984.71
2019-03-09T09:21:08.824Z,984.72
2019-03-09T09:22:08.962Z,984.60
2019-03-09T09:23:08.733Z,984.54
2019-03-09T09:24:08.734Z,984.60
2019-03-09T09:25:08.729Z,984.59
2019-03-09T09:26:08.718Z,984.58
2019-03-09T09:27:08.714Z,984.56
2019-03-09T09:28:08.676Z,984.47
2019-03-09T09:29:08.663Z,984.58
2019-03-09T09:30:08.657Z,984.63
2019-03-09T09:31:08.663Z,984.65
2019-03-09T09:32:08.663Z,984.61
2019-03-09T09:33:08.653Z,984.35
2019-03-09T09:34:08.618Z,984.64
2019-03-09T09:35:08.605Z,984.62
2019-03-09T09:36:08.588Z,984.58
2019-03-09T09:37:08.581Z,984.48
2019-03-09T09:38:08.603Z,984.46
2019-03-09T09:39:08.621Z,984.39
2019-03-09T09:40:08.548Z,984.34
2019-03-09T09:41:08.539Z,984.32
2019-03-09T09:42:08.527Z,984.36
2019-03-09T09:43:08.852Z,984.32
2019-03-09T09:44:08.521Z,984.45
2019-03-09T09:45:08.498Z,984.35
2019-03-09T09:46:08.538Z,984.35
2019-03-09T09:47:08.497Z,984.36
2019-03-09T09:48:08.466Z,984.31
2019-03-09T09:49:08.478Z,984.28
2019-03-09T09:50:08.462Z,984.28
2019-03-09T09:51:08.429Z,984.28
2019-03-09T09:52:08.420Z,984.23
2019-03-09T09:53:08.417Z,984.33
2019-03-09T09:54:08.416Z,984.36
2019-03-09T09:55:08.435Z,984.39
2019-03-09T09:56:08.418Z,984.46
2019-03-09T09:57:08.373Z,984.50
2019-03-09T09:58:08.375Z,984.42
2019-03-09T09:59:08.361Z,984.49
2019-03-09T10:00:08.369Z,984.57
2019-03-09T10:01:08.356Z,984.59
2019-03-09T10:02:08.351Z,984.61
2019-03-09T10:03:08.388Z,984.69
2019-03-09T10:04:08.480Z,984.71
2019-03-09T10:05:08.367Z,984.81
2019-03-09T10:06:08.323Z,984.69
2019-03-09T10:07:08.287Z,984.75
2019-03-09T10:08:08.396Z,984.77
2019-03-09T10:09:08.336Z,984.75
2019-03-09T10:10:08.257Z,984.77
2019-03-09T10:11:08.230Z,984.71
2019-03-09T10:12:08.232Z,984.65
2019-03-09T10:13:08.253Z,984.62
2019-03-09T10:14:08.228Z,984.68
2019-03-09T10:15:08.226Z,984.53
2019-03-09T10:16:08.232Z,984.50
2019-03-09T10:17:08.190Z,984.39
2019-03-09T10:18:08.162Z,984.32
2019-03-09T10:19:08.141Z,984.35
2019-03-09T10:20:08.159Z,984.34
2019-03-09T10:21:08.155Z,984.33
2019-03-09T10:22:08.110Z,984.34
2019-03-09T10:23:08.119Z,984.27
2019-03-09T10:24:08.115Z,984.31
2019-03-09T10:25:08.345Z,984.24
2019-03-09T10:26:08.120Z,984.30
2019-03-09T10:27:08.081Z,984.30
2019-03-09T10:28:08.096Z,984.21
2019-03-09T10:29:08.033Z,984.25
2019-03-09T10:30:08.048Z,984.28
2019-03-09T10:31:08.051Z,984.29
2019-03-09T10:32:07.994Z,984.25
2019-03-09T10:33:07.993Z,984.35
2019-03-09T10:34:07.972Z,984.37
2019-03-09T10:35:07.962Z,984.37
2019-03-09T10:36:07.992Z,984.39
2019-03-09T10:37:07.949Z,984.38
2019-03-09T10:38:07.931Z,984.42
2019-03-09T10:39:07.937Z,984.32
2019-03-09T10:40:07.916Z,984.33
2019-03-09T10:41:07.906Z,984.39
2019-03-09T10:42:08.011Z,984.28
2019-03-09T10:43:07.937Z,984.30
2019-03-09T10:44:07.933Z,984.27
2019-03-09T10:45:07.922Z,984.26
2019-03-09T10:46:07.941Z,984.23
2019-03-09T10:47:07.859Z,984.24
2019-03-09T10:48:07.844Z,984.25
2019-03-09T10:49:08.059Z,984.25
2019-03-09T10:50:07.814Z,984.22
2019-03-09T10:51:07.825Z,984.27
2019-03-09T10:52:07.803Z,984.19
2019-03-09T10:53:07.816Z,984.14
2019-03-09T10:54:07.782Z,984.20
2019-03-09T10:55:07.760Z,984.19
2019-03-09T10:56:07.753Z,984.18
2019-03-09T10:57:07.754Z,984.19
2019-03-09T10:58:07.725Z,984.15
2019-03-09T10:59:07.726Z,984.11
2019-03-09T11:00:07.724Z,983.99
2019-03-09T11:01:07.687Z,984.08
2019-03-09T11:02:07.679Z,983.98
2019-03-09T11:03:07.687Z,983.93
2019-03-09T11:04:07.655Z,983.92
2019-03-09T11:05:07.655Z,983.88
2019-03-09T11:06:07.680Z,983.81
2019-03-09T11:07:07.625Z,983.88
2019-03-09T11:08:07.623Z,983.86
2019-03-09T11:09:07.605Z,983.81
2019-03-09T11:10:07.642Z,983.86
2019-03-09T11:11:07.582Z,983.81
2019-03-09T11:12:07.578Z,983.78
2019-03-09T11:13:07.563Z,983.70
2019-03-09T11:14:07.553Z,983.69
2019-03-09T11:15:07.540Z,983.63
2019-03-09T11:16:07.584Z,983.66
2019-03-09T11:17:07.524Z,983.57
2019-03-09T11:18:07.587Z,983.64
2019-03-09T11:19:07.610Z,983.72
2019-03-09T11:20:07.501Z,983.66
2019-03-09T11:21:07.475Z,983.68
2019-03-09T11:22:07.546Z,983.69
2019-03-09T11:23:07.453Z,983.66
2019-03-09T11:24:07.499Z,983.57
2019-03-09T11:25:07.471Z,983.53
2019-03-09T11:26:07.446Z,983.53
2019-03-09T11:27:07.406Z,983.47
2019-03-09T11:28:07.397Z,983.51
2019-03-09T11:29:07.758Z,983.46
2019-03-09T11:30:07.436Z,983.55
2019-03-09T11:31:07.415Z,983.62
2019-03-09T11:32:07.359Z,983.75
2019-03-09T11:33:07.345Z,983.93
2019-03-09T11:34:07.342Z,983.89
2019-03-09T11:35:07.341Z,983.63
2019-03-09T11:36:07.311Z,983.71
2019-03-09T11:37:07.374Z,983.74
2019-03-09T11:38:07.289Z,983.67
2019-03-09T11:39:07.279Z,983.78
2019-03-09T11:40:07.266Z,983.65
2019-03-09T11:41:07.257Z,983.56
2019-03-09T11:42:07.347Z,983.54
2019-03-09T11:43:07.256Z,983.60
2019-03-09T11:44:07.224Z,983.59
2019-03-09T11:45:07.216Z,983.55
2019-03-09T11:46:07.204Z,983.51
2019-03-09T11:47:07.188Z,983.55
2019-03-09T11:48:07.195Z,983.60
2019-03-09T11:49:07.242Z,983.61
2019-03-09T11:50:07.202Z,983.49
2019-03-09T11:51:07.148Z,983.48
2019-03-09T11:52:07.140Z,983.52
2019-03-09T11:53:07.133Z,983.49
2019-03-09T11:54:07.113Z,983.44
2019-03-09T11:55:07.150Z,983.38
2019-03-09T11:56:07.096Z,983.22
2019-03-09T11:57:07.085Z,983.13
2019-03-09T11:58:07.080Z,983.15
2019-03-09T11:59:07.062Z,983.03
2019-03-09T12:00:07.748Z,982.92
2019-03-09T12:01:07.065Z,983.03
2019-03-09T12:02:07.069Z,983.08
2019-03-09T12:03:07.035Z,982.92
2019-03-09T12:04:07.044Z,982.89
2019-03-09T12:05:07.093Z,982.78
2019-03-09T12:06:07.277Z,982.61
2019-03-09T12:07:06.977Z,982.69
2019-03-09T12:08:06.958Z,982.58
2019-03-09T12:09:06.951Z,982.52
2019-03-09T12:10:06.971Z,982.34
2019-03-09T12:11:06.939Z,982.28
2019-03-09T12:12:06.956Z,982.28
2019-03-09T12:13:07.105Z,982.38
2019-03-09T12:14:06.943Z,982.35
2019-03-09T12:15:06.884Z,982.36
2019-03-09T12:16:06.895Z,982.20
2019-03-09T12:17:12.613Z,982.08
2019-03-09T12:18:07.880Z,981.99
2019-03-09T12:19:06.873Z,982.13
2019-03-09T12:20:06.845Z,982.04
2019-03-09T12:21:06.837Z,982.04
2019-03-09T12:22:06.830Z,982.01
2019-03-09T12:23:06.804Z,981.97
2019-03-09T12:24:16.217Z,982.01
2019-03-09T12:25:07.798Z,981.95
2019-03-09T12:26:06.782Z,982.00
2019-03-09T12:27:06.768Z,981.99
2019-03-09T12:28:06.745Z,982.01